Time;durP1;ratioP1;P1;durP2;ratioP2;P2;SDS_P1;SDS_P2;PMS_P1;PMS_P2;Temp;Humidity;BMP_temperature;BMP_pressure;BME280_temperature;BME280_humidity;BME280_pressure;Samples;Min_cycle;Max_cycle;Signal;HPM_P1;HPM_P2
2022/10/19 00:02:18;;;;;;;7.93;2.10;;;;;;;9.61;100.00;101581.94;7393220;19;20424;-55
2022/10/19 00:04:50;;;;;;;18.03;3.37;;;;;;;9.67;100.00;101588.34;7383670;19;20390;-54
2022/10/19 00:07:20;;;;;;;13.43;2.33;;;;;;;9.62;100.00;101594.00;7395472;19;20759;-59
2022/10/19 00:09:49;;;;;;;12.60;1.90;;;;;;;9.55;100.00;101585.91;7394459;19;20404;-58
2022/10/19 00:12:18;;;;;;;8.37;1.70;;;;;;;9.56;100.00;101592.88;7393454;19;20420;-57
2022/10/19 00:14:48;;;;;;;6.20;1.57;;;;;;;9.53;100.00;101594.38;7396439;19;20384;-57
2022/10/19 00:17:18;;;;;;;5.40;1.47;;;;;;;9.48;100.00;101600.94;7394988;19;20411;-58
2022/10/19 00:19:50;;;;;;;5.57;1.50;;;;;;;9.54;100.00;101603.88;7392097;19;20413;-56
2022/10/19 00:22:19;;;;;;;6.70;1.70;;;;;;;9.56;100.00;101603.19;7392377;19;20434;-56
2022/10/19 00:24:48;;;;;;;8.90;1.53;;;;;;;9.52;100.00;101616.66;7392993;19;20933;-57
2022/10/19 00:27:18;;;;;;;8.23;1.40;;;;;;;9.52;100.00;101608.03;7394820;19;20392;-54
2022/10/19 00:29:47;;;;;;;9.17;2.23;;;;;;;9.59;100.00;101616.22;7391084;19;20418;-60
2022/10/19 00:32:17;;;;;;;13.43;2.00;;;;;;;9.57;100.00;101616.94;7392455;19;20449;-58
2022/10/19 00:34:46;;;;;;;19.10;1.83;;;;;;;9.57;100.00;101623.00;7392621;19;20399;-58
2022/10/19 00:37:18;;;;;;;11.47;1.50;;;;;;;9.54;100.00;101621.91;7394452;19;20380;-56
2022/10/19 00:39:48;;;;;;;14.97;3.80;;;;;;;9.58;100.00;101624.75;7391346;19;20368;-59
2022/10/19 00:42:17;;;;;;;3.90;1.73;;;;;;;9.64;100.00;101629.38;7392348;19;20407;-56
2022/10/19 00:45:05;;;;;;;4.33;1.70;;;;;;;9.57;100.00;101623.00;7392424;19;20714;-54
2022/10/19 00:47:36;;;;;;;9.93;1.70;;;;;;;9.68;100.00;101620.13;7394074;19;20383;-59
2022/10/19 00:50:05;;;;;;;10.53;1.80;;;;;;;9.60;100.00;101617.13;7390300;19;20411;-59
2022/10/19 00:52:37;;;;;;;9.40;1.60;;;;;;;9.62;100.00;101620.69;7393402;19;20772;-57
2022/10/19 00:55:09;;;;;;;11.27;1.80;;;;;;;9.60;100.00;101627.44;7391646;19;20419;-57
2022/10/19 00:57:38;;;;;;;7.60;1.57;;;;;;;9.53;100.00;101613.28;7393810;19;20418;-60
2022/10/19 01:00:10;;;;;;;7.30;1.50;;;;;;;9.59;100.00;101616.22;7390639;19;20427;-56
2022/10/19 01:02:39;;;;;;;5.37;1.50;;;;;;;9.61;100.00;101611.19;7393824;19;20376;-56
2022/10/19 01:05:10;;;;;;;7.57;1.50;;;;;;;9.54;100.00;101607.31;7387499;19;20772;-53
2022/10/19 01:07:42;;;;;;;13.43;1.87;;;;;;;9.64;100.00;101598.47;7393616;19;20379;-60
2022/10/19 01:10:11;;;;;;;12.20;2.23;;;;;;;9.68;100.00;101602.09;7389805;19;20965;-61
2022/10/19 01:13:03;;;;;;;12.33;1.70;;;;;;;9.68;100.00;101594.38;7392213;19;20379;-53
2022/10/19 01:15:38;;;;;;;11.17;1.77;;;;;;;9.63;100.00;101583.81;7391273;19;20968;-52
2022/10/19 01:18:13;;;;;;;9.17;1.47;;;;;;;9.57;100.00;101571.47;7394061;19;20909;-57
2022/10/19 01:21:05;;;;;;;6.33;2.00;;;;;;;9.71;100.00;101568.78;7377645;19;20419;-57
2022/10/19 01:24:07;;;;;;;7.50;1.10;;;;;;;9.66;100.00;101560.81;7392951;19;20380;-55
2022/10/19 01:27:04;;;;;;;5.83;1.67;;;;;;;9.65;100.00;101552.97;7390248;19;20776;-56
2022/10/19 01:29:53;;;;;;;8.33;1.80;;;;;;;9.62;100.00;101552.78;7388705;19;20769;-59
2022/10/19 01:32:26;;;;;;;4.80;1.43;;;;;;;9.63;100.00;101544.28;7390974;19;20420;-59
2022/10/19 01:35:05;;;;;;;7.63;1.67;;;;;;;9.89;100.00;101529.44;7387065;19;20426;-61
2022/10/19 01:37:40;;;;;;;5.07;1.27;;;;;;;9.75;100.00;101524.38;7392966;19;20769;-56
2022/10/19 01:40:12;;;;;;;9.23;1.80;;;;;;;9.80;100.00;101512.63;7389375;19;20406;-54
2022/10/19 01:42:44;;;;;;;6.47;1.37;;;;;;;9.97;100.00;101510.13;7392606;19;20392;-59
2022/10/19 01:45:20;;;;;;;13.17;1.90;;;;;;;9.99;100.00;101509.41;7390015;19;20431;-60
2022/10/19 01:47:53;;;;;;;8.37;1.80;;;;;;;9.78;100.00;101503.03;7392616;19;20414;-59
2022/10/19 01:50:27;;;;;;;28.73;5.63;;;;;;;9.80;100.00;101497.16;7388143;19;20427;-59
2022/10/19 01:52:57;;;;;;;8.03;1.63;;;;;;;9.71;100.00;101509.53;7395616;19;20412;-57
2022/10/19 01:55:28;;;;;;;12.60;1.80;;;;;;;9.61;100.00;101520.09;7390467;19;20403;-53
2022/10/19 01:57:59;;;;;;;8.23;1.50;;;;;;;9.65;100.00;101522.06;7395351;19;20387;-55
2022/10/19 02:00:33;;;;;;;5.83;1.43;;;;;;;9.57;100.00;101525.09;7388674;19;20452;-54
2022/10/19 02:03:03;;;;;;;10.23;1.00;;;;;;;9.56;100.00;101527.56;7392103;19;20379;-58
2022/10/19 02:05:34;;;;;;;8.50;1.50;;;;;;;9.55;100.00;101536.97;7384572;19;20438;-61
2022/10/19 02:08:07;;;;;;;3.20;1.13;;;;;;;9.48;100.00;101528.81;7391896;19;20419;-56
2022/10/19 02:10:39;;;;;;;5.17;1.83;;;;;;;9.72;100.00;101530.25;7389722;19;20439;-57
2022/10/19 02:13:09;;;;;;;6.27;1.83;;;;;;;9.74;100.00;101530.31;7392943;19;20391;-57
2022/10/19 02:15:44;;;;;;;8.27;1.47;;;;;;;9.76;100.00;101540.72;7389123;19;20421;-61
2022/10/19 02:18:15;;;;;;;19.60;2.20;;;;;;;9.63;100.00;101545.16;7391509;19;20386;-58
2022/10/19 02:20:45;;;;;;;10.53;2.27;;;;;;;9.63;100.00;101554.59;7386980;19;20755;-51
2022/10/19 02:23:15;;;;;;;17.37;2.60;;;;;;;9.78;100.00;101550.31;7391766;19;20383;-55
2022/10/19 02:25:44;;;;;;;8.70;2.27;;;;;;;9.80;100.00;101553.84;7396081;19;20973;-56
2022/10/19 02:28:14;;;;;;;16.23;2.30;;;;;;;9.72;100.00;101553.44;7398934;19;20387;-55
2022/10/19 02:30:46;;;;;;;7.00;1.63;;;;;;;9.77;100.00;101558.84;7393284;19;20494;-61
2022/10/19 02:33:15;;;;;;;7.90;1.17;;;;;;;9.68;100.00;101561.78;7398456;19;20391;-54
2022/10/19 02:35:45;;;;;;;13.00;2.20;;;;;;;9.74;100.00;101563.81;7396109;19;20434;-54
2022/10/19 02:38:18;;;;;;;9.00;1.40;;;;;;;10.02;100.00;101562.84;7398540;19;20410;-56
2022/10/19 02:40:54;;;;;;;11.93;1.60;;;;;;;10.01;100.00;101566.22;7393796;19;20407;-60
2022/10/19 02:43:24;;;;;;;5.97;1.37;;;;;;;9.85;100.00;101582.50;7398991;19;20380;-55
2022/10/19 02:46:00;;;;;;;10.73;1.10;;;;;;;9.66;100.00;101590.81;7395956;19;20415;-60
2022/10/19 02:48:32;;;;;;;12.80;1.63;;;;;;;9.67;100.00;101597.75;7398215;19;20383;-58
2022/10/19 02:51:01;;;;;;;7.00;1.30;;;;;;;9.50;100.00;101620.84;7393577;19;20996;-57
2022/10/19 02:53:31;;;;;;;12.50;1.80;;;;;;;9.40;100.00;101624.56;7397794;19;20388;-59
2022/10/19 02:56:00;;;;;;;9.47;1.43;;;;;;;9.45;100.00;101627.41;7395625;19;20447;-59
2022/10/19 02:58:29;;;;;;;8.97;1.80;;;;;;;9.47;100.00;101635.22;7398998;19;20722;-59
2022/10/19 03:01:01;;;;;;;6.40;1.30;;;;;;;9.62;100.00;101642.97;7393490;19;20435;-59
2022/10/19 03:03:31;;;;;;;4.60;1.50;;;;;;;9.67;100.00;101649.28;7398105;19;20455;-60
2022/10/19 03:06:00;;;;;;;5.80;1.47;;;;;;;9.81;100.00;101653.59;7392545;19;20430;-61
2022/10/19 03:08:30;;;;;;;8.70;1.47;;;;;;;9.70;100.00;101670.09;7397879;19;20913;-59
2022/10/19 03:11:00;;;;;;;14.17;1.77;;;;;;;9.65;100.00;101676.66;7395980;19;20479;-59
2022/10/19 03:13:29;;;;;;;8.63;1.30;;;;;;;9.60;100.00;101684.13;7397638;19;20388;-52
2022/10/19 03:16:07;;;;;;;8.67;1.50;;;;;;;9.53;100.00;101688.00;7394688;19;20441;-58
2022/10/19 03:18:37;;;;;;;6.07;1.33;;;;;;;9.59;100.00;101688.38;7397395;19;20391;-54
2022/10/19 03:21:08;;;;;;;15.50;1.73;;;;;;;9.75;100.00;101699.63;7392531;19;20426;-59
2022/10/19 03:23:38;;;;;;;12.30;1.90;;;;;;;9.86;100.00;101710.56;7397371;19;20925;-56
2022/10/19 03:26:08;;;;;;;10.70;2.47;;;;;;;9.86;100.00;101724.31;7394485;19;20414;-59
2022/10/19 03:28:40;;;;;;;7.80;1.50;;;;;;;9.88;100.00;101726.13;7397347;19;20783;-59
2022/10/19 03:31:12;;;;;;;8.53;1.30;;;;;;;9.80;100.00;101754.00;7392057;19;20442;-57
2022/10/19 03:33:42;;;;;;;6.50;1.47;;;;;;;9.57;100.00;101771.53;7396928;19;20392;-61
2022/10/19 03:36:18;;;;;;;6.50;1.40;;;;;;;9.76;100.00;101773.56;7394816;19;20472;-57
2022/10/19 03:38:48;;;;;;;8.73;1.27;;;;;;;9.96;100.00;101776.47;7396567;19;20943;-62
2022/10/19 03:41:17;;;;;;;9.93;1.30;;;;;;;10.13;100.00;101783.53;7391870;19;20419;-61
2022/10/19 03:43:46;;;;;;;9.37;2.67;;;;;;;10.20;100.00;101791.63;7396451;19;20914;-59
2022/10/19 03:46:19;;;;;;;16.73;2.60;;;;;;;10.19;100.00;101802.72;7393824;19;20643;-54
2022/10/19 03:48:49;;;;;;;9.33;1.27;;;;;;;9.75;100.00;101818.16;7396154;19;20917;-57
2022/10/19 03:51:20;;;;;;;9.87;2.03;;;;;;;9.82;100.00;101824.59;7391085;19;20456;-59
2022/10/19 03:53:53;;;;;;;7.87;2.17;;;;;;;9.99;100.00;101831.69;7396112;19;20718;-57
2022/10/19 03:56:24;;;;;;;13.50;3.80;;;;;;;9.92;100.00;101847.56;7393650;19;20410;-58
2022/10/19 03:58:55;;;;;;;12.17;2.67;;;;;;;9.77;100.00;101852.66;7397810;19;20736;-53
2022/10/19 04:01:28;;;;;;;6.30;1.37;;;;;;;9.55;100.00;101860.72;7391510;19;20414;-59
2022/10/19 04:03:59;;;;;;;11.47;2.23;;;;;;;9.51;100.00;101874.19;7396416;19;20387;-56
2022/10/19 04:06:30;;;;;;;11.17;1.40;;;;;;;9.62;100.00;101883.50;7393540;19;20431;-57
2022/10/19 04:09:00;;;;;;;10.60;2.13;;;;;;;9.72;100.00;101890.13;7395363;19;20388;-58
2022/10/19 04:11:32;;;;;;;22.37;6.47;;;;;;;9.86;100.00;101881.56;7390583;19;20438;-58
2022/10/19 04:14:02;;;;;;;20.17;2.13;;;;;;;9.65;100.00;101893.13;7395115;19;20384;-53
2022/10/19 04:16:34;;;;;;;11.87;1.90;;;;;;;9.53;100.00;101894.09;7393377;19;20419;-56
2022/10/19 04:19:05;;;;;;;7.07;1.80;;;;;;;9.50;100.00;101911.06;7395293;19;20387;-58
2022/10/19 04:21:37;;;;;;;22.30;5.03;;;;;;;9.62;100.00;101908.34;7390161;19;20446;-54
2022/10/19 04:24:08;;;;;;;11.07;1.77;;;;;;;9.53;100.00;101919.00;7394993;19;20901;-56
2022/10/19 04:26:41;;;;;;;13.20;1.50;;;;;;;9.48;100.00;101928.97;7392216;19;20430;-61
2022/10/19 04:29:11;;;;;;;16.43;2.50;;;;;;;9.58;100.00;101926.22;7394803;19;20392;-57
2022/10/19 04:31:43;;;;;;;8.17;2.47;;;;;;;9.65;100.00;101939.50;7389995;19;20419;-59
2022/10/19 04:34:13;;;;;;;9.20;1.60;;;;;;;9.52;100.00;101946.44;7394918;19;21018;-57
2022/10/19 04:36:43;;;;;;;6.83;1.77;;;;;;;9.50;100.00;101950.59;7392345;19;20415;-54
2022/10/19 04:39:12;;;;;;;7.00;1.30;;;;;;;9.54;100.00;101960.28;7394356;19;20408;-55
2022/10/19 04:41:42;;;;;;;11.53;2.17;;;;;;;9.84;100.00;101957.94;7390009;19;20415;-57
2022/10/19 04:44:11;;;;;;;9.27;1.67;;;;;;;9.76;100.00;101968.53;7394441;19;20399;-58
2022/10/19 04:46:44;;;;;;;15.50;3.17;;;;;;;9.81;100.00;101977.47;7390263;19;20407;-55
2022/10/19 04:49:13;;;;;;;20.70;2.93;;;;;;;9.89;100.00;101986.56;7394118;19;20414;-55
2022/10/19 04:51:48;;;;;;;11.47;3.57;;;;;;;9.81;100.00;101998.97;7389369;19;20442;-54
2022/10/19 04:54:17;;;;;;;9.70;1.73;;;;;;;9.73;100.00;102013.03;7394141;19;20380;-56
2022/10/19 04:56:47;;;;;;;18.73;8.10;;;;;;;10.07;100.00;101999.75;7391146;19;20411;-57
2022/10/19 04:59:16;;;;;;;49.27;23.83;;;;;;;10.46;100.00;102004.75;7393853;19;20388;-57
2022/10/19 05:01:48;;;;;;;44.13;20.07;;;;;;;10.39;100.00;102006.06;7389400;19;20781;-55
2022/10/19 05:04:18;;;;;;;44.07;19.30;;;;;;;10.47;100.00;102016.00;7394003;19;21030;-58
2022/10/19 05:06:47;;;;;;;13.60;3.20;;;;;;;10.47;100.00;102028.91;7390747;19;20429;-54
2022/10/19 05:09:16;;;;;;;19.13;7.53;;;;;;;10.57;100.00;102036.44;7393574;19;20411;-58
2022/10/19 05:11:46;;;;;;;16.57;5.30;;;;;;;10.53;100.00;102055.94;7388647;19;20749;-61
2022/10/19 05:14:15;;;;;;;10.20;2.57;;;;;;;10.34;100.00;102073.63;7394009;19;20761;-53
2022/10/19 05:16:47;;;;;;;13.27;3.97;;;;;;;10.09;100.00;102083.25;7389039;19;20444;-53
2022/10/19 05:19:17;;;;;;;17.13;6.83;;;;;;;10.06;100.00;102092.50;7393483;19;20401;-55
2022/10/19 05:21:46;;;;;;;22.70;6.17;;;;;;;10.23;100.00;102083.25;7388045;19;20411;-58
2022/10/19 05:24:15;;;;;;;25.43;6.73;;;;;;;10.29;100.00;102096.56;7393226;19;20388;-59
2022/10/19 05:26:45;;;;;;;14.07;5.40;;;;;;;10.26;100.00;102096.38;7390269;19;20439;-57
2022/10/19 05:29:15;;;;;;;11.33;2.20;;;;;;;10.22;100.00;102099.53;7392987;19;20938;-60
2022/10/19 05:31:47;;;;;;;11.63;1.80;;;;;;;10.05;100.00;102101.91;7388099;19;20411;-59
2022/10/19 05:34:17;;;;;;;11.30;2.10;;;;;;;9.88;100.00;102107.66;7393222;19;20759;-59
2022/10/19 05:36:46;;;;;;;10.97;2.43;;;;;;;9.76;100.00;102106.03;7388526;19;20442;-55
2022/10/19 05:39:17;;;;;;;12.10;2.30;;;;;;;9.74;100.00;102107.59;7396302;19;20391;-58
2022/10/19 05:41:47;;;;;;;7.30;1.20;;;;;;;9.76;100.00;102103.47;7388007;19;20439;-59
2022/10/19 05:44:18;;;;;;;9.50;2.50;;;;;;;9.73;100.00;102099.00;7392862;19;20387;-57
2022/10/19 05:46:51;;;;;;;16.30;2.40;;;;;;;9.65;100.00;102104.44;7390062;19;20973;-56
2022/10/19 05:49:22;;;;;;;13.00;2.13;;;;;;;9.70;100.00;102100.47;7392737;19;20427;-57
2022/10/19 05:51:51;;;;;;;13.73;3.50;;;;;;;9.70;100.00;102103.06;7387452;19;20921;-53
2022/10/19 05:54:21;;;;;;;22.77;5.03;;;;;;;9.71;100.00;102104.84;7392426;19;20419;-57
2022/10/19 05:56:55;;;;;;;18.10;5.03;;;;;;;9.73;100.00;102101.56;7388019;19;20443;-55
2022/10/19 05:59:25;;;;;;;11.03;2.20;;;;;;;9.73;100.00;102108.41;7401908;19;20415;-56
2022/10/19 06:01:57;;;;;;;12.13;3.03;;;;;;;9.72;100.00;102098.88;7393817;19;20435;-58
2022/10/19 06:04:27;;;;;;;6.20;1.60;;;;;;;9.66;100.00;102103.63;7399926;19;20460;-57
2022/10/19 06:06:56;;;;;;;20.27;6.17;;;;;;;9.66;100.00;102098.47;7399348;19;20785;-61
2022/10/19 06:09:26;;;;;;;33.37;9.40;;;;;;;9.86;100.00;102089.50;7403593;19;20399;-58
2022/10/19 06:11:55;;;;;;;13.97;3.67;;;;;;;10.05;100.00;102083.84;7393685;19;20442;-55
2022/10/19 06:14:25;;;;;;;14.53;4.70;;;;;;;10.20;100.00;102076.22;7404154;19;20391;-58
2022/10/19 06:16:54;;;;;;;15.27;2.90;;;;;;;10.04;100.00;102082.06;7394486;19;20422;-61
2022/10/19 06:19:26;;;;;;;17.40;4.90;;;;;;;10.17;100.00;102085.44;7399643;19;20416;-54
2022/10/19 06:21:55;;;;;;;12.90;2.80;;;;;;;10.05;100.00;102096.75;7392722;19;20423;-59
2022/10/19 06:24:25;;;;;;;23.63;4.37;;;;;;;9.99;100.00;102096.34;7399240;19;20413;-57
2022/10/19 06:26:55;;;;;;;13.00;2.67;;;;;;;9.86;100.00;102105.84;7396140;19;20940;-59
2022/10/19 06:29:24;;;;;;;7.60;2.30;;;;;;;9.88;100.00;102112.81;7399162;19;20770;-56
2022/10/19 06:31:54;;;;;;;14.60;2.13;;;;;;;9.88;100.00;102118.84;7392576;19;20422;-61
2022/10/19 06:34:27;;;;;;;16.47;3.60;;;;;;;9.91;100.00;102105.25;7398908;19;20408;-60
2022/10/19 06:36:56;;;;;;;14.73;3.40;;;;;;;9.88;100.00;102100.78;7394664;19;20433;-57
2022/10/19 06:39:25;;;;;;;14.80;2.27;;;;;;;9.92;100.00;102104.47;7398744;19;20388;-54
2022/10/19 06:41:55;;;;;;;11.73;1.83;;;;;;;9.95;100.00;102107.25;7392552;19;20411;-59
2022/10/19 06:44:25;;;;;;;16.70;2.37;;;;;;;9.95;100.00;102104.69;7398607;19;20387;-56
2022/10/19 06:46:54;;;;;;;12.30;2.00;;;;;;;9.93;100.00;102102.00;7395709;19;20410;-61
2022/10/19 06:49:26;;;;;;;17.23;2.80;;;;;;;9.98;100.00;102115.19;7398452;19;20383;-58
2022/10/19 06:51:56;;;;;;;21.33;6.30;;;;;;;10.00;100.00;102108.44;7392128;19;20462;-58
2022/10/19 06:54:25;;;;;;;11.77;2.87;;;;;;;10.09;100.00;102114.22;7398190;19;20407;-55
2022/10/19 06:56:55;;;;;;;12.67;2.43;;;;;;;10.18;100.00;102119.06;7393722;19;20453;-58
2022/10/19 06:59:24;;;;;;;11.40;2.47;;;;;;;10.22;100.00;102122.75;7397979;19;20412;-58
2022/10/19 07:01:54;;;;;;;16.33;2.40;;;;;;;10.21;100.00;102124.41;7392521;19;20723;-59
2022/10/19 07:04:23;;;;;;;9.80;2.33;;;;;;;10.22;100.00;102133.97;7398670;19;20759;-56
2022/10/19 07:06:55;;;;;;;18.00;2.33;;;;;;;10.30;100.00;102139.59;7394740;19;20985;-58
2022/10/19 07:09:24;;;;;;;19.30;2.20;;;;;;;10.33;100.00;102141.50;7396554;19;20384;-59
2022/10/19 07:11:54;;;;;;;13.23;2.80;;;;;;;10.36;100.00;102150.31;7391909;19;21055;-55
2022/10/19 07:14:23;;;;;;;15.07;2.67;;;;;;;10.37;100.00;102172.75;7397773;19;20412;-58
2022/10/19 07:16:53;;;;;;;16.00;2.30;;;;;;;10.40;100.00;102178.13;7393323;19;20454;-58
2022/10/19 07:19:22;;;;;;;11.33;1.87;;;;;;;10.40;100.00;102184.94;7398374;19;20404;-61
2022/10/19 07:21:54;;;;;;;11.93;2.27;;;;;;;10.44;100.00;102188.66;7391281;19;20423;-56
2022/10/19 07:24:24;;;;;;;14.00;3.00;;;;;;;10.39;100.00;102196.97;7397427;19;21287;-59
2022/10/19 07:26:54;;;;;;;17.57;2.40;;;;;;;10.49;100.00;102190.75;7394155;19;20411;-57
2022/10/19 07:29:23;;;;;;;11.50;2.70;;;;;;;10.79;100.00;102192.63;7397335;19;20424;-56
2022/10/19 07:31:53;;;;;;;9.20;1.73;;;;;;;10.76;100.00;102195.00;7391073;19;20443;-57
2022/10/19 07:34:22;;;;;;;19.17;3.07;;;;;;;10.73;100.00;102198.31;7396745;19;20392;-58
2022/10/19 07:36:59;;;;;;;13.53;1.90;;;;;;;10.81;100.00;102211.69;7393872;19;20427;-57
2022/10/19 07:39:28;;;;;;;11.70;2.27;;;;;;;10.82;100.00;102218.63;7396944;19;20381;-54
2022/10/19 07:41:58;;;;;;;18.13;3.10;;;;;;;10.90;100.00;102225.19;7392920;19;20430;-51
2022/10/19 07:44:28;;;;;;;11.80;2.37;;;;;;;10.84;100.00;102232.56;7396567;19;20388;-56
2022/10/19 07:46:58;;;;;;;9.27;2.20;;;;;;;10.93;100.00;102232.25;7397723;19;20427;-57
2022/10/19 07:49:27;;;;;;;9.43;2.60;;;;;;;10.92;100.00;102236.50;7396465;19;20384;-56
2022/10/19 07:51:59;;;;;;;11.30;2.00;;;;;;;10.83;100.00;102240.19;7392273;19;20410;-59
2022/10/19 07:54:29;;;;;;;24.30;3.33;;;;;;;10.82;100.00;102247.03;7396110;19;20758;-54
2022/10/19 07:56:58;;;;;;;12.53;1.90;;;;;;;10.72;100.00;102252.41;7393167;19;20424;-60
2022/10/19 07:59:28;;;;;;;18.57;2.47;;;;;;;10.68;100.00;102253.91;7396166;19;20412;-57
2022/10/19 08:01:58;;;;;;;11.90;2.00;;;;;;;10.60;100.00;102245.66;7393828;19;20989;-56
2022/10/19 08:04:28;;;;;;;12.97;3.23;;;;;;;10.65;100.00;102252.00;7398348;19;20393;-52
2022/10/19 08:07:20;;;;;;;12.83;3.43;;;;;;;10.64;100.00;102252.81;7396820;19;20436;-59
2022/10/19 08:09:49;;;;;;;8.13;2.50;;;;;;;10.66;100.00;102255.47;7395082;19;20408;-58
2022/10/19 08:12:22;;;;;;;11.43;2.57;;;;;;;10.69;100.00;102258.28;7395259;19;20966;-58
2022/10/19 08:14:51;;;;;;;10.30;2.53;;;;;;;10.71;100.00;102266.13;7392906;19;20779;-61
2022/10/19 08:17:21;;;;;;;12.60;2.87;;;;;;;10.72;100.00;102267.91;7392617;19;20420;-56
2022/10/19 08:19:50;;;;;;;16.03;2.30;;;;;;;10.75;100.00;102276.75;7392856;19;20664;-59
2022/10/19 08:22:22;;;;;;;10.03;1.97;;;;;;;10.82;100.00;102275.44;7392184;19;20898;-53
2022/10/19 08:24:52;;;;;;;15.77;2.40;;;;;;;10.88;100.00;102280.13;7392467;19;20434;-57
2022/10/19 08:27:21;;;;;;;22.53;5.13;;;;;;;10.90;100.00;102287.19;7398587;19;20392;-54
2022/10/19 08:29:51;;;;;;;9.10;1.67;;;;;;;10.86;100.00;102298.09;7391182;19;20424;-55
2022/10/19 08:32:20;;;;;;;21.00;4.90;;;;;;;10.86;100.00;102303.25;7392643;19;21061;-57
2022/10/19 08:34:50;;;;;;;63.97;15.57;;;;;;;10.96;100.00;102311.63;7392899;19;20384;-61
2022/10/19 08:37:19;;;;;;;10.83;2.00;;;;;;;10.93;100.00;102310.59;7393616;19;20404;-55
2022/10/19 08:40:19;;;;;;;22.50;4.10;;;;;;;10.97;100.00;102313.41;7390577;19;20491;-60
2022/10/19 08:42:54;;;;;;;10.60;2.50;;;;;;;10.97;100.00;102313.41;7394408;19;20798;-55
2022/10/19 08:45:30;;;;;;;7.60;2.10;;;;;;;11.02;100.00;102314.59;7392113;19;20412;-56
2022/10/19 08:48:02;;;;;;;14.87;2.30;;;;;;;11.11;100.00;102324.59;7393865;19;20380;-60
2022/10/19 08:50:38;;;;;;;9.43;2.63;;;;;;;11.56;100.00;102324.88;7390514;19;20413;-54
2022/10/19 08:53:11;;;;;;;76.97;38.60;;;;;;;11.68;100.00;102324.72;7398014;19;20389;-58
2022/10/19 08:55:53;;;;;;;18.50;5.20;;;;;;;12.01;100.00;102312.09;7391106;19;20435;-51
2022/10/19 08:58:31;;;;;;;20.40;8.23;;;;;;;11.97;100.00;102320.47;7392527;19;20406;-56
2022/10/19 09:01:04;;;;;;;33.73;12.03;;;;;;;11.93;100.00;102332.31;7390026;19;20417;-57
2022/10/19 09:03:40;;;;;;;33.17;16.30;;;;;;;12.08;100.00;102334.97;7393931;19;20374;-59
2022/10/19 09:06:28;;;;;;;17.60;6.97;;;;;;;12.09;100.00;102348.78;7390138;19;20432;-57
2022/10/19 09:08:59;;;;;;;23.93;8.70;;;;;;;12.20;100.00;102352.94;7393640;19;20384;-58
2022/10/19 09:11:36;;;;;;;19.53;6.23;;;;;;;12.31;100.00;102360.47;7389155;19;20409;-57
2022/10/19 09:14:11;;;;;;;18.97;4.20;;;;;;;12.09;100.00;102360.06;7392810;19;20391;-57
2022/10/19 09:16:41;;;;;;;9.57;4.00;;;;;;;12.21;100.00;102365.06;7390903;19;20415;-62
2022/10/19 09:19:16;;;;;;;24.47;5.33;;;;;;;12.26;100.00;102362.78;7391693;19;20391;-55
2022/10/19 09:21:48;;;;;;;13.43;2.30;;;;;;;12.08;100.00;102372.88;7388731;19;20787;-59
2022/10/19 09:24:29;;;;;;;26.40;6.90;;;;;;;11.66;100.00;102380.63;7393275;19;20360;-55
2022/10/19 09:27:03;;;;;;;15.07;2.50;;;;;;;11.67;100.00;102377.22;7395329;19;20436;-56
2022/10/19 09:29:39;;;;;;;8.77;3.47;;;;;;;11.80;100.00;102378.91;7394937;19;20392;-53
2022/10/19 09:32:14;;;;;;;12.07;3.23;;;;;;;11.83;100.00;102374.81;7389117;19;20419;-54
2022/10/19 09:34:46;;;;;;;11.87;2.17;;;;;;;11.71;100.00;102387.88;7390738;19;20387;-59
2022/10/19 09:37:15;;;;;;;20.67;3.77;;;;;;;11.73;100.00;102386.28;7392318;19;20390;-58
2022/10/19 09:39:54;;;;;;;12.10;4.40;;;;;;;11.91;100.00;102385.66;7388925;19;20406;-56
2022/10/19 09:42:31;;;;;;;14.97;3.63;;;;;;;11.87;100.00;102378.50;7390676;19;20421;-57
2022/10/19 09:45:08;;;;;;;13.67;2.80;;;;;;;11.83;100.00;102377.41;7389748;19;20744;-56
2022/10/19 09:47:39;;;;;;;23.70;2.80;;;;;;;11.79;100.00;102384.88;7392584;19;20413;-59
2022/10/19 09:50:19;;;;;;;16.67;5.07;;;;;;;11.66;100.00;102399.63;7388518;19;20398;-58
2022/10/19 09:52:49;;;;;;;15.07;2.80;;;;;;;11.50;100.00;102390.00;7387186;19;20413;-59
2022/10/19 09:55:26;;;;;;;16.30;3.20;;;;;;;11.68;100.00;102385.09;7392974;19;20411;-55
2022/10/19 09:58:07;;;;;;;9.17;2.57;;;;;;;11.52;100.00;102384.91;7391167;19;20383;-61
2022/10/19 10:00:41;;;;;;;7.07;1.80;;;;;;;11.60;100.00;102394.06;7389221;19;20985;-58
2022/10/19 10:03:24;;;;;;;10.27;1.60;;;;;;;11.87;100.00;102405.25;7392192;19;20399;-57
2022/10/19 10:05:54;;;;;;;16.77;5.23;;;;;;;11.99;100.00;102412.88;7389567;19;20457;-56
2022/10/19 10:08:26;;;;;;;18.17;5.97;;;;;;;12.14;100.00;102414.66;7391770;19;20426;-58
2022/10/19 10:10:59;;;;;;;49.70;23.37;;;;;;;12.31;100.00;102427.75;7387372;19;20843;-52
2022/10/19 10:13:31;;;;;;;37.53;17.70;;;;;;;12.41;100.00;102431.00;7393121;19;20411;-59
2022/10/19 10:16:03;;;;;;;46.40;23.57;;;;;;;12.62;100.00;102434.78;7390753;19;20438;-53
2022/10/19 10:18:32;;;;;;;28.23;11.47;;;;;;;12.58;100.00;102449.25;7390539;19;20645;-60
2022/10/19 10:21:04;;;;;;;44.77;16.40;;;;;;;12.81;100.00;102457.50;7386740;19;20784;-57
2022/10/19 10:23:36;;;;;;;21.77;9.47;;;;;;;12.99;100.00;102454.22;7391513;19;20380;-59
2022/10/19 10:26:16;;;;;;;15.63;6.37;;;;;;;13.04;100.00;102465.75;7390304;19;20981;-58
2022/10/19 10:28:52;;;;;;;22.90;9.30;;;;;;;13.12;100.00;102479.16;7391820;19;20589;-54
2022/10/19 10:31:29;;;;;;;20.53;5.47;;;;;;;13.20;100.00;102485.69;7386357;19;20501;-59
2022/10/19 10:34:01;;;;;;;11.20;4.17;;;;;;;13.32;100.00;102486.38;7390949;19;20384;-58
2022/10/19 10:36:52;;;;;;;8.40;1.97;;;;;;;13.40;100.00;102501.50;7387751;19;20753;-55
2022/10/19 10:39:23;;;;;;;9.63;2.00;;;;;;;13.33;100.00;102511.50;7390041;19;20383;-57
2022/10/19 10:41:53;;;;;;;6.57;1.50;;;;;;;13.25;100.00;102520.53;7386102;19;20418;-56
2022/10/19 10:44:28;;;;;;;9.13;2.40;;;;;;;13.20;100.00;102529.72;7391490;19;20385;-53
2022/10/19 10:46:59;;;;;;;24.93;3.70;;;;;;;13.24;100.00;102518.75;7397001;19;20404;-57
2022/10/19 10:49:30;;;;;;;19.53;3.80;;;;;;;13.23;100.00;102527.34;7398225;19;20404;-58
2022/10/19 10:52:02;;;;;;;7.40;1.70;;;;;;;13.07;100.00;102529.00;7393850;19;20410;-61
2022/10/19 10:54:34;;;;;;;12.53;2.97;;;;;;;12.78;100.00;102535.91;7395397;19;20385;-58
2022/10/19 10:57:08;;;;;;;6.43;1.80;;;;;;;12.60;100.00;102529.63;7397411;19;20387;-56
2022/10/19 10:59:43;;;;;;;31.33;6.93;;;;;;;12.40;100.00;102518.91;7393596;19;20394;-56
2022/10/19 11:02:20;;;;;;;11.43;2.40;;;;;;;12.32;100.00;102510.66;7394496;19;20419;-58
2022/10/19 11:04:54;;;;;;;6.57;1.80;;;;;;;12.10;100.00;102505.84;7395010;19;20964;-57
2022/10/19 11:07:25;;;;;;;6.07;1.57;;;;;;;11.98;100.00;102493.88;7396416;19;20381;-60
2022/10/19 11:09:56;;;;;;;12.57;2.10;;;;;;;12.21;100.00;102489.28;7396898;19;20389;-56
2022/10/19 11:12:34;;;;;;;8.87;1.87;;;;;;;12.48;100.00;102484.03;7396962;19;20383;-56
2022/10/19 11:15:14;;;;;;;12.23;1.97;;;;;;;12.72;100.00;102480.25;7391679;19;20422;-52
2022/10/19 11:17:53;;;;;;;6.60;1.53;;;;;;;13.00;100.00;102485.41;7397162;19;20388;-57
2022/10/19 11:20:23;;;;;;;6.90;1.40;;;;;;;13.15;100.00;102492.28;7389503;19;20977;-56
2022/10/19 11:22:57;;;;;;;17.90;8.13;;;;;;;13.17;100.00;102499.34;7396720;19;20391;-59
2022/10/19 11:25:34;;;;;;;33.57;16.87;;;;;;;13.57;100.00;102481.75;7393220;19;20440;-57
2022/10/19 11:28:17;;;;;;;26.37;12.30;;;;;;;13.67;100.00;102476.28;7396845;19;20412;-60
2022/10/19 11:30:57;;;;;;;11.20;3.87;;;;;;;13.41;100.00;102492.91;7394527;19;20405;-60
2022/10/19 11:33:38;;;;;;;11.63;2.20;;;;;;;13.32;100.00;102509.72;7395162;19;20915;-51
2022/10/19 11:36:15;;;;;;;10.13;2.77;;;;;;;13.09;100.00;102505.78;7396611;19;20437;-56
2022/10/19 11:38:52;;;;;;;8.90;2.40;;;;;;;12.84;100.00;102519.84;7393012;19;20455;-55